sensor_id;sensor_type;location;lat;lon;timestamp;pressure;altitude;pressure_sealevel;temperature;humidity
72560;BME280;62987;52.382;9.752;2023-03-11T00:00:19;99294.66;;;-0.61;100.00
72560;BME280;62987;52.382;9.752;2023-03-11T00:02:49;99311.09;;;-0.57;100.00
72560;BME280;62987;52.382;9.752;2023-03-11T00:05:21;99291.31;;;-0.67;100.00
72560;BME280;62987;52.382;9.752;2023-03-11T00:07:49;99318.94;;;-0.57;100.00
72560;BME280;62987;52.382;9.752;2023-03-11T00:10:21;99332.81;;;-0.55;100.00
72560;BME280;62987;52.382;9.752;2023-03-11T00:12:49;99329.44;;;-0.60;100.00
72560;BME280;62987;52.382;9.752;2023-03-11T00:15:17;99343.28;;;-0.57;100.00
72560;BME280;62987;52.382;9.752;2023-03-11T00:17:46;99352.00;;;-0.56;100.00
72560;BME280;62987;52.382;9.752;2023-03-11T00:20:17;99333.97;;;-0.70;100.00
72560;BME280;62987;52.382;9.752;2023-03-11T00:22:46;99282.38;;;-1.02;100.00
72560;BME280;62987;52.382;9.752;2023-03-11T00:25:17;99348.84;;;-0.73;100.00
72560;BME280;62987;52.382;9.752;2023-03-11T00:27:45;99351.44;;;-0.72;100.00
72560;BME280;62987;52.382;9.752;2023-03-11T00:30:15;99362.63;;;-0.65;100.00
72560;BME280;62987;52.382;9.752;2023-03-11T00:32:43;99388.50;;;-0.53;100.00
72560;BME280;62987;52.382;9.752;2023-03-11T00:35:12;99347.97;;;-0.74;100.00
72560;BME280;62987;52.382;9.752;2023-03-11T00:37:41;99389.34;;;-0.53;100.00
72560;BME280;62987;52.382;9.752;2023-03-11T00:40:13;99371.38;;;-0.69;100.00
72560;BME280;62987;52.382;9.752;2023-03-11T00:42:41;99392.13;;;-0.62;100.00
72560;BME280;62987;52.382;9.752;2023-03-11T00:45:10;99405.91;;;-0.54;100.00
72560;BME280;62987;52.382;9.752;2023-03-11T00:47:39;99392.19;;;-0.65;100.00
72560;BME280;62987;52.382;9.752;2023-03-11T00:50:09;99416.38;;;-0.55;100.00
72560;BME280;62987;52.382;9.752;2023-03-11T00:52:40;99394.81;;;-0.65;100.00
72560;BME280;62987;52.382;9.752;2023-03-11T00:55:09;99424.25;;;-0.58;100.00
72560;BME280;62987;52.382;9.752;2023-03-11T00:57:39;99403.59;;;-0.70;100.00
72560;BME280;62987;52.382;9.752;2023-03-11T01:00:12;99429.41;;;-0.54;100.00
72560;BME280;62987;52.382;9.752;2023-03-11T01:02:41;99443.38;;;-0.56;100.00
72560;BME280;62987;52.382;9.752;2023-03-11T01:05:09;99439.84;;;-0.54;100.00
72560;BME280;62987;52.382;9.752;2023-03-11T01:07:39;99434.84;;;-0.66;100.00
72560;BME280;62987;52.382;9.752;2023-03-11T01:10:09;99427.81;;;-0.64;100.00
72560;BME280;62987;52.382;9.752;2023-03-11T01:12:40;99462.50;;;-0.56;100.00
72560;BME280;62987;52.382;9.752;2023-03-11T01:15:15;99434.25;;;-0.82;100.00
72560;BME280;62987;52.382;9.752;2023-03-11T01:17:44;99469.44;;;-0.55;100.00
72560;BME280;62987;52.382;9.752;2023-03-11T01:20:13;99428.25;;;-0.87;100.00
72560;BME280;62987;52.382;9.752;2023-03-11T01:22:41;99479.13;;;-0.60;100.00
72560;BME280;62987;52.382;9.752;2023-03-11T01:25:10;99482.63;;;-0.61;100.00
72560;BME280;62987;52.382;9.752;2023-03-11T01:27:42;99479.06;;;-0.57;100.00
72560;BME280;62987;52.382;9.752;2023-03-11T01:30:13;99489.50;;;-0.58;100.00
72560;BME280;62987;52.382;9.752;2023-03-11T01:32:42;99400.06;;;-1.17;100.00
72560;BME280;62987;52.382;9.752;2023-03-11T01:35:12;99502.63;;;-0.60;100.00
72560;BME280;62987;52.382;9.752;2023-03-11T01:37:41;99494.88;;;-0.66;100.00
72560;BME280;62987;52.382;9.752;2023-03-11T01:40:14;99506.25;;;-0.70;100.00
72560;BME280;62987;52.382;9.752;2023-03-11T01:42:45;99520.88;;;-0.60;100.00
72560;BME280;62987;52.382;9.752;2023-03-11T01:45:37;99445.88;;;-1.02;100.00
72560;BME280;62987;52.382;9.752;2023-03-11T01:48:08;99516.66;;;-0.67;100.00
72560;BME280;62987;52.382;9.752;2023-03-11T01:50:40;99471.06;;;-0.98;100.00
72560;BME280;62987;52.382;9.752;2023-03-11T01:53:10;99538.31;;;-0.62;100.00
72560;BME280;62987;52.382;9.752;2023-03-11T01:55:39;99511.75;;;-0.88;100.00
72560;BME280;62987;52.382;9.752;2023-03-11T01:58:12;99543.50;;;-0.59;100.00
72560;BME280;62987;52.382;9.752;2023-03-11T02:00:42;99539.81;;;-0.46;100.00
72560;BME280;62987;52.382;9.752;2023-03-11T02:03:16;99553.53;;;-0.34;100.00
72560;BME280;62987;52.382;9.752;2023-03-11T02:05:48;99522.56;;;-0.57;100.00
72560;BME280;62987;52.382;9.752;2023-03-11T02:08:18;99547.63;;;-0.46;100.00
72560;BME280;62987;52.382;9.752;2023-03-11T02:10:48;99572.69;;;-0.34;100.00
72560;BME280;62987;52.382;9.752;2023-03-11T02:13:18;99566.94;;;-0.56;100.00
72560;BME280;62987;52.382;9.752;2023-03-11T02:15:46;99580.84;;;-0.54;100.00
72560;BME280;62987;52.382;9.752;2023-03-11T02:18:16;99578.28;;;-0.58;100.00
72560;BME280;62987;52.382;9.752;2023-03-11T02:20:50;99555.06;;;-0.75;100.00
72560;BME280;62987;52.382;9.752;2023-03-11T02:23:23;99559.41;;;-0.74;100.00
72560;BME280;62987;52.382;9.752;2023-03-11T02:25:57;99556.00;;;-0.81;100.00
72560;BME280;62987;52.382;9.752;2023-03-11T02:28:30;99574.94;;;-0.65;100.00
72560;BME280;62987;52.382;9.752;2023-03-11T02:30:59;99580.16;;;-0.66;100.00
72560;BME280;62987;52.382;9.752;2023-03-11T02:33:30;99588.81;;;-0.64;100.00
72560;BME280;62987;52.382;9.752;2023-03-11T02:35:59;99588.00;;;-0.66;100.00
72560;BME280;62987;52.382;9.752;2023-03-11T02:38:27;99585.44;;;-0.71;100.00
72560;BME280;62987;52.382;9.752;2023-03-11T02:40:56;99593.19;;;-0.65;100.00
72560;BME280;62987;52.382;9.752;2023-03-11T02:43:32;99570.84;;;-0.84;100.00
72560;BME280;62987;52.382;9.752;2023-03-11T02:46:03;99610.56;;;-0.64;100.00
72560;BME280;62987;52.382;9.752;2023-03-11T02:48:33;99577.78;;;-0.82;100.00
72560;BME280;62987;52.382;9.752;2023-03-11T02:51:02;99620.09;;;-0.61;100.00
72560;BME280;62987;52.382;9.752;2023-03-11T02:53:34;99618.34;;;-0.59;100.00
72560;BME280;62987;52.382;9.752;2023-03-11T02:56:04;99594.19;;;-0.73;100.00
72560;BME280;62987;52.382;9.752;2023-03-11T02:58:34;99619.34;;;-0.68;100.00
72560;BME280;62987;52.382;9.752;2023-03-11T03:01:03;99602.09;;;-0.78;100.00
72560;BME280;62987;52.382;9.752;2023-03-11T03:03:31;99620.19;;;-0.67;100.00
72560;BME280;62987;52.382;9.752;2023-03-11T03:05:59;99634.91;;;-0.62;100.00
72560;BME280;62987;52.382;9.752;2023-03-11T03:08:27;99640.94;;;-0.58;100.00
72560;BME280;62987;52.382;9.752;2023-03-11T03:10:55;99642.72;;;-0.59;100.00
72560;BME280;62987;52.382;9.752;2023-03-11T03:13:25;99614.31;;;-0.82;100.00
72560;BME280;62987;52.382;9.752;2023-03-11T03:15:56;99654.91;;;-0.61;100.00
72560;BME280;62987;52.382;9.752;2023-03-11T03:18:26;99649.69;;;-0.61;100.00
72560;BME280;62987;52.382;9.752;2023-03-11T03:20:54;99655.78;;;-0.62;100.00
72560;BME280;62987;52.382;9.752;2023-03-11T03:23:22;99663.63;;;-0.62;100.00
72560;BME280;62987;52.382;9.752;2023-03-11T03:25:50;99655.88;;;-0.68;100.00
72560;BME280;62987;52.382;9.752;2023-03-11T03:28:18;99645.47;;;-0.71;100.00
72560;BME280;62987;52.382;9.752;2023-03-11T03:30:46;99669.88;;;-0.72;100.00
72560;BME280;62987;52.382;9.752;2023-03-11T03:33:16;99671.53;;;-0.65;100.00
72560;BME280;62987;52.382;9.752;2023-03-11T03:35:44;99675.88;;;-0.67;100.00
72560;BME280;62987;52.382;9.752;2023-03-11T03:38:22;99664.72;;;-0.78;100.00
72560;BME280;62987;52.382;9.752;2023-03-11T03:40:51;99690.69;;;-0.69;100.00
72560;BME280;62987;52.382;9.752;2023-03-11T03:43:20;99696.75;;;-0.65;100.00
72560;BME280;62987;52.382;9.752;2023-03-11T03:45:54;99700.19;;;-0.63;100.00
72560;BME280;62987;52.382;9.752;2023-03-11T03:48:26;99700.22;;;-0.65;100.00
72560;BME280;62987;52.382;9.752;2023-03-11T03:50:55;99629.50;;;-1.11;100.00
72560;BME280;62987;52.382;9.752;2023-03-11T03:53:23;99672.63;;;-0.84;100.00
72560;BME280;62987;52.382;9.752;2023-03-11T03:55:51;99725.44;;;-0.64;100.00
72560;BME280;62987;52.382;9.752;2023-03-11T03:58:21;99720.22;;;-0.64;100.00
72560;BME280;62987;52.382;9.752;2023-03-11T04:00:48;99733.25;;;-0.61;100.00
72560;BME280;62987;52.382;9.752;2023-03-11T04:03:17;99739.38;;;-0.65;100.00
72560;BME280;62987;52.382;9.752;2023-03-11T04:05:52;99738.47;;;-0.61;100.00
72560;BME280;62987;52.382;9.752;2023-03-11T04:08:20;99743.75;;;-0.67;100.00
72560;BME280;62987;52.382;9.752;2023-03-11T04:10:55;99748.97;;;-0.65;100.00
72560;BME280;62987;52.382;9.752;2023-03-11T04:13:24;99759.38;;;-0.64;100.00
72560;BME280;62987;52.382;9.752;2023-03-11T04:15:52;99734.34;;;-0.78;100.00
72560;BME280;62987;52.382;9.752;2023-03-11T04:18:20;99757.69;;;-0.69;100.00
72560;BME280;62987;52.382;9.752;2023-03-11T04:20:49;99711.91;;;-0.96;100.00
72560;BME280;62987;52.382;9.752;2023-03-11T04:23:18;99745.66;;;-0.78;100.00
72560;BME280;62987;52.382;9.752;2023-03-11T04:25:46;99762.03;;;-0.67;100.00
72560;BME280;62987;52.382;9.752;2023-03-11T04:28:14;99726.59;;;-0.85;100.00
72560;BME280;62987;52.382;9.752;2023-03-11T04:30:44;99757.75;;;-0.72;100.00
72560;BME280;62987;52.382;9.752;2023-03-11T04:33:12;99758.53;;;-0.66;100.00
72560;BME280;62987;52.382;9.752;2023-03-11T04:35:40;99727.47;;;-0.87;100.00
72560;BME280;62987;52.382;9.752;2023-03-11T04:38:11;99742.16;;;-0.78;100.00
72560;BME280;62987;52.382;9.752;2023-03-11T04:40:40;99760.31;;;-0.71;100.00
72560;BME280;62987;52.382;9.752;2023-03-11T04:43:08;99758.63;;;-0.75;100.00
72560;BME280;62987;52.382;9.752;2023-03-11T04:45:37;99764.88;;;-0.90;100.00
72560;BME280;62987;52.382;9.752;2023-03-11T04:48:06;99764.88;;;-0.85;100.00
72560;BME280;62987;52.382;9.752;2023-03-11T04:50:36;99784.81;;;-0.81;100.00
72560;BME280;62987;52.382;9.752;2023-03-11T04:53:04;99762.44;;;-1.03;100.00
72560;BME280;62987;52.382;9.752;2023-03-11T04:55:32;99797.06;;;-0.89;100.00
72560;BME280;62987;52.382;9.752;2023-03-11T04:58:02;99784.97;;;-0.95;100.00
72560;BME280;62987;52.382;9.752;2023-03-11T05:00:33;99796.28;;;-0.96;100.00
72560;BME280;62987;52.382;9.752;2023-03-11T05:03:06;99797.25;;;-1.04;100.00
72560;BME280;62987;52.382;9.752;2023-03-11T05:05:34;99806.63;;;-0.88;100.00
72560;BME280;62987;52.382;9.752;2023-03-11T05:08:03;99785.03;;;-1.02;100.00
72560;BME280;62987;52.382;9.752;2023-03-11T05:10:31;99811.91;;;-0.91;100.00
72560;BME280;62987;52.382;9.752;2023-03-11T05:13:04;99811.91;;;-0.94;100.00
72560;BME280;62987;52.382;9.752;2023-03-11T05:15:36;99831.78;;;-0.81;100.00
72560;BME280;62987;52.382;9.752;2023-03-11T05:18:05;99824.88;;;-0.85;100.00
72560;BME280;62987;52.382;9.752;2023-03-11T05:20:35;99839.59;;;-0.78;100.00
72560;BME280;62987;52.382;9.752;2023-03-11T05:23:03;99838.75;;;-0.80;100.00
72560;BME280;62987;52.382;9.752;2023-03-11T05:25:33;99814.56;;;-0.97;100.00
72560;BME280;62987;52.382;9.752;2023-03-11T05:28:04;99843.13;;;-0.84;100.00
72560;BME280;62987;52.382;9.752;2023-03-11T05:30:36;99840.53;;;-0.85;100.00
72560;BME280;62987;52.382;9.752;2023-03-11T05:33:04;99857.91;;;-0.83;100.00
72560;BME280;62987;52.382;9.752;2023-03-11T05:35:33;99854.41;;;-0.83;100.00
72560;BME280;62987;52.382;9.752;2023-03-11T05:38:02;99852.72;;;-0.86;100.00
72560;BME280;62987;52.382;9.752;2023-03-11T05:40:30;99872.75;;;-0.89;100.00
72560;BME280;62987;52.382;9.752;2023-03-11T05:42:58;99878.84;;;-0.87;100.00
72560;BME280;62987;52.382;9.752;2023-03-11T05:45:29;99874.41;;;-0.81;100.00
72560;BME280;62987;52.382;9.752;2023-03-11T05:47:59;99878.78;;;-0.84;100.00
72560;BME280;62987;52.382;9.752;2023-03-11T05:50:28;99851.13;;;-1.00;100.00
72560;BME280;62987;52.382;9.752;2023-03-11T05:52:56;99848.56;;;-1.05;100.00
72560;BME280;62987;52.382;9.752;2023-03-11T05:55:27;99864.97;;;-0.95;100.00
72560;BME280;62987;52.382;9.752;2023-03-11T05:57:57;99890.09;;;-0.84;100.00
72560;BME280;62987;52.382;9.752;2023-03-11T06:00:25;99884.91;;;-0.85;100.00
72560;BME280;62987;52.382;9.752;2023-03-11T06:02:58;99891.88;;;-0.87;100.00
72560;BME280;62987;52.382;9.752;2023-03-11T06:05:26;99889.28;;;-0.89;100.00
72560;BME280;62987;52.382;9.752;2023-03-11T06:07:56;99866.84;;;-1.06;100.00
72560;BME280;62987;52.382;9.752;2023-03-11T06:10:24;99899.66;;;-0.83;100.00
72560;BME280;62987;52.382;9.752;2023-03-11T06:12:52;99909.22;;;-0.80;100.00
72560;BME280;62987;52.382;9.752;2023-03-11T06:15:24;99909.22;;;-0.82;100.00
72560;BME280;62987;52.382;9.752;2023-03-11T06:17:52;99897.97;;;-0.88;100.00
72560;BME280;62987;52.382;9.752;2023-03-11T06:20:22;99915.25;;;-0.76;100.00
72560;BME280;62987;52.382;9.752;2023-03-11T06:22:50;99913.50;;;-0.73;100.00
72560;BME280;62987;52.382;9.752;2023-03-11T06:25:22;99899.72;;;-0.87;100.00
72560;BME280;62987;52.382;9.752;2023-03-11T06:27:51;99927.38;;;-0.71;100.00
72560;BME280;62987;52.382;9.752;2023-03-11T06:30:22;99946.56;;;-0.75;100.00
72560;BME280;62987;52.382;9.752;2023-03-11T06:33:00;99931.78;;;-0.76;100.00
72560;BME280;62987;52.382;9.752;2023-03-11T06:35:29;99911.91;;;-0.91;100.00
72560;BME280;62987;52.382;9.752;2023-03-11T06:37:57;99947.38;;;-0.68;100.00
72560;BME280;62987;52.382;9.752;2023-03-11T06:40:25;99944.81;;;-0.73;100.00
72560;BME280;62987;52.382;9.752;2023-03-11T06:42:53;99951.72;;;-0.66;100.00
72560;BME280;62987;52.382;9.752;2023-03-11T06:45:24;99940.53;;;-0.78;100.00
72560;BME280;62987;52.382;9.752;2023-03-11T06:47:55;99964.78;;;-0.69;100.00
72560;BME280;62987;52.382;9.752;2023-03-11T06:50:24;99963.94;;;-0.71;100.00
72560;BME280;62987;52.382;9.752;2023-03-11T06:52:55;99966.59;;;-0.77;100.00
72560;BME280;62987;52.382;9.752;2023-03-11T06:55:23;99970.88;;;-0.67;100.00
72560;BME280;62987;52.382;9.752;2023-03-11T06:57:52;99944.03;;;-0.81;100.00
72560;BME280;62987;52.382;9.752;2023-03-11T07:00:20;99983.00;;;-0.60;100.00
72560;BME280;62987;52.382;9.752;2023-03-11T07:02:53;99975.19;;;-0.61;100.00
72560;BME280;62987;52.382;9.752;2023-03-11T07:05:21;99994.31;;;-0.61;100.00
72560;BME280;62987;52.382;9.752;2023-03-11T07:07:55;99970.13;;;-0.81;100.00
72560;BME280;62987;52.382;9.752;2023-03-11T07:10:24;100005.63;;;-0.59;100.00
72560;BME280;62987;52.382;9.752;2023-03-11T07:12:52;100016.97;;;-0.64;100.00
72560;BME280;62987;52.382;9.752;2023-03-11T07:15:21;99991.00;;;-0.81;100.00
72560;BME280;62987;52.382;9.752;2023-03-11T07:17:49;100023.91;;;-0.60;100.00
72560;BME280;62987;52.382;9.752;2023-03-11T07:20:17;100033.44;;;-0.58;100.00
72560;BME280;62987;52.382;9.752;2023-03-11T07:22:45;100032.66;;;-0.67;100.00
72560;BME280;62987;52.382;9.752;2023-03-11T07:25:15;100041.31;;;-0.59;100.00
72560;BME280;62987;52.382;9.752;2023-03-11T07:27:43;100044.75;;;-0.54;100.00
72560;BME280;62987;52.382;9.752;2023-03-11T07:30:12;100043.00;;;-0.57;100.00
72560;BME280;62987;52.382;9.752;2023-03-11T07:32:40;100057.69;;;-0.41;100.00
72560;BME280;62987;52.382;9.752;2023-03-11T07:35:08;100040.41;;;-0.57;100.00
72560;BME280;62987;52.382;9.752;2023-03-11T07:37:36;100062.88;;;-0.37;100.00
72560;BME280;62987;52.382;9.752;2023-03-11T07:40:05;100073.28;;;-0.30;100.00
72560;BME280;62987;52.382;9.752;2023-03-11T07:42:35;100083.66;;;-0.25;100.00
72560;BME280;62987;52.382;9.752;2023-03-11T07:45:04;100084.59;;;-0.28;100.00
72560;BME280;62987;52.382;9.752;2023-03-11T07:47:32;100087.25;;;-0.38;100.00
72560;BME280;62987;52.382;9.752;2023-03-11T07:50:00;100089.13;;;-0.53;100.00
72560;BME280;62987;52.382;9.752;2023-03-11T07:52:29;100098.63;;;-0.44;100.00
72560;BME280;62987;52.382;9.752;2023-03-11T07:54:57;100104.66;;;-0.34;100.00
72560;BME280;62987;52.382;9.752;2023-03-11T07:57:25;100091.66;;;-0.42;100.00
72560;BME280;62987;52.382;9.752;2023-03-11T07:59:57;100117.50;;;-0.10;100.00
72560;BME280;62987;52.382;9.752;2023-03-11T08:02:26;100106.25;;;-0.17;100.00
72560;BME280;62987;52.382;9.752;2023-03-11T08:04:55;100117.53;;;0.74;100.00
72560;BME280;62987;52.382;9.752;2023-03-11T08:07:23;100140.34;;;0.63;100.00
72560;BME280;62987;52.382;9.752;2023-03-11T08:09:51;100134.66;;;0.23;100.00
72560;BME280;62987;52.382;9.752;2023-03-11T08:12:19;100130.91;;;0.48;100.00
72560;BME280;62987;52.382;9.752;2023-03-11T08:14:47;100142.00;;;0.70;100.00
72560;BME280;62987;52.382;9.752;2023-03-11T08:17:16;100139.28;;;1.45;100.00
72560;BME280;62987;52.382;9.752;2023-03-11T08:19:48;100098.88;;;1.61;99.37
72560;BME280;62987;52.382;9.752;2023-03-11T08:22:16;100124.44;;;2.50;92.62
72560;BME280;62987;52.382;9.752;2023-03-11T08:24:44;100141.13;;;2.92;91.53
72560;BME280;62987;52.382;9.752;2023-03-11T08:27:12;100105.75;;;3.83;88.62
72560;BME280;62987;52.382;9.752;2023-03-11T08:29:40;100157.69;;;2.94;89.02
72560;BME280;62987;52.382;9.752;2023-03-11T08:32:08;100160.41;;;2.43;92.28
72560;BME280;62987;52.382;9.752;2023-03-11T08:34:40;100178.03;;;1.83;95.38
72560;BME280;62987;52.382;9.752;2023-03-11T08:37:08;100166.59;;;2.87;93.67
72560;BME280;62987;52.382;9.752;2023-03-11T08:39:35;100137.41;;;3.02;91.86
72560;BME280;62987;52.382;9.752;2023-03-11T08:42:04;100175.72;;;2.18;90.18
72560;BME280;62987;52.382;9.752;2023-03-11T08:44:32;100182.34;;;3.70;88.60
72560;BME280;62987;52.382;9.752;2023-03-11T08:47:00;100156.84;;;5.66;77.42
72560;BME280;62987;52.382;9.752;2023-03-11T08:49:30;100176.69;;;5.20;80.00
72560;BME280;62987;52.382;9.752;2023-03-11T08:52:00;100189.31;;;7.01;73.47
72560;BME280;62987;52.382;9.752;2023-03-11T08:54:28;100142.03;;;7.17;64.96
72560;BME280;62987;52.382;9.752;2023-03-11T08:56:56;100199.03;;;7.26;67.51
72560;BME280;62987;52.382;9.752;2023-03-11T08:59:24;100195.78;;;5.29;72.09
72560;BME280;62987;52.382;9.752;2023-03-11T09:01:52;100207.44;;;3.84;76.87
72560;BME280;62987;52.382;9.752;2023-03-11T09:04:20;100203.91;;;3.45;85.22
72560;BME280;62987;52.382;9.752;2023-03-11T09:06:50;100218.34;;;4.41;82.88
72560;BME280;62987;52.382;9.752;2023-03-11T09:09:19;100187.84;;;5.30;78.74
72560;BME280;62987;52.382;9.752;2023-03-11T09:11:47;100220.06;;;3.69;78.60
72560;BME280;62987;52.382;9.752;2023-03-11T09:14:15;100223.78;;;3.58;84.20
72560;BME280;62987;52.382;9.752;2023-03-11T09:16:43;100216.44;;;5.44;75.99
72560;BME280;62987;52.382;9.752;2023-03-11T09:19:11;100192.38;;;6.12;70.13
72560;BME280;62987;52.382;9.752;2023-03-11T09:21:40;100213.97;;;5.96;77.01
72560;BME280;62987;52.382;9.752;2023-03-11T09:24:08;100218.31;;;4.77;77.70
72560;BME280;62987;52.382;9.752;2023-03-11T09:26:37;100209.81;;;5.31;74.71
72560;BME280;62987;52.382;9.752;2023-03-11T09:29:05;100217.91;;;4.92;75.97
72560;BME280;62987;52.382;9.752;2023-03-11T09:31:33;100232.34;;;4.07;79.37
72560;BME280;62987;52.382;9.752;2023-03-11T09:34:01;100234.03;;;3.71;80.87
72560;BME280;62987;52.382;9.752;2023-03-11T09:36:29;100234.66;;;3.42;85.25
72560;BME280;62987;52.382;9.752;2023-03-11T09:38:57;100232.56;;;3.16;84.98
72560;BME280;62987;52.382;9.752;2023-03-11T09:41:30;100235.41;;;4.93;80.61
72560;BME280;62987;52.382;9.752;2023-03-11T09:44:18;100175.59;;;6.40;69.03
72560;BME280;62987;52.382;9.752;2023-03-11T09:47:28;100233.09;;;7.33;70.70
72560;BME280;62987;52.382;9.752;2023-03-11T09:50:05;100225.38;;;7.04;68.21
72560;BME280;62987;52.382;9.752;2023-03-11T09:52:43;100243.22;;;6.97;66.84
72560;BME280;62987;52.382;9.752;2023-03-11T09:55:26;100246.38;;;7.07;70.05
72560;BME280;62987;52.382;9.752;2023-03-11T09:58:00;100247.97;;;5.48;72.47
72560;BME280;62987;52.382;9.752;2023-03-11T10:00:31;100256.41;;;4.98;74.55
72560;BME280;62987;52.382;9.752;2023-03-11T10:03:01;100244.25;;;4.92;79.93
72560;BME280;62987;52.382;9.752;2023-03-11T10:05:32;100225.72;;;5.88;72.58
72560;BME280;62987;52.382;9.752;2023-03-11T10:08:04;100246.06;;;6.66;66.21
72560;BME280;62987;52.382;9.752;2023-03-11T10:10:44;100253.09;;;6.92;72.20
72560;BME280;62987;52.382;9.752;2023-03-11T10:13:20;100248.69;;;6.40;70.66
72560;BME280;62987;52.382;9.752;2023-03-11T10:15:57;100257.06;;;6.53;68.34
72560;BME280;62987;52.382;9.752;2023-03-11T10:18:42;100262.34;;;7.05;65.64
72560;BME280;62987;52.382;9.752;2023-03-11T10:21:26;100264.22;;;7.02;69.13
72560;BME280;62987;52.382;9.752;2023-03-11T10:26:52;100271.34;;;6.47;74.48
72560;BME280;62987;52.382;9.752;2023-03-11T10:29:26;100274.50;;;6.85;69.59
72560;BME280;62987;52.382;9.752;2023-03-11T10:31:59;100269.88;;;6.91;67.82
72560;BME280;62987;52.382;9.752;2023-03-11T10:34:33;100266.84;;;7.02;68.29
72560;BME280;62987;52.382;9.752;2023-03-11T10:37:08;100264.72;;;5.46;67.41
72560;BME280;62987;52.382;9.752;2023-03-11T10:39:40;100271.84;;;5.73;75.33
72560;BME280;62987;52.382;9.752;2023-03-11T10:42:11;100244.75;;;5.97;72.58
72560;BME280;62987;52.382;9.752;2023-03-11T10:44:41;100260.31;;;6.07;68.30
72560;BME280;62987;52.382;9.752;2023-03-11T10:47:16;100277.56;;;6.72;69.36
72560;BME280;62987;52.382;9.752;2023-03-11T10:49:45;100247.09;;;7.60;63.61
72560;BME280;62987;52.382;9.752;2023-03-11T10:52:13;100266.81;;;8.21;64.50
72560;BME280;62987;52.382;9.752;2023-03-11T10:54:43;100265.59;;;8.73;56.79
72560;BME280;62987;52.382;9.752;2023-03-11T10:57:23;100267.16;;;9.40;53.19
72560;BME280;62987;52.382;9.752;2023-03-11T10:59:55;100256.47;;;8.59;52.84
72560;BME280;62987;52.382;9.752;2023-03-11T11:02:27;100274.13;;;8.60;58.28
72560;BME280;62987;52.382;9.752;2023-03-11T11:05:23;100278.53;;;9.42;51.96
72560;BME280;62987;52.382;9.752;2023-03-11T11:08:03;100257.75;;;10.28;58.65
72560;BME280;62987;52.382;9.752;2023-03-11T11:10:31;100280.28;;;9.02;61.17
72560;BME280;62987;52.382;9.752;2023-03-11T11:13:04;100266.03;;;9.05;55.95
72560;BME280;62987;52.382;9.752;2023-03-11T11:15:51;100283.84;;;9.62;61.19
72560;BME280;62987;52.382;9.752;2023-03-11T11:18:23;100282.28;;;10.52;59.44
72560;BME280;62987;52.382;9.752;2023-03-11T11:20:55;100281.91;;;9.27;59.88
72560;BME280;62987;52.382;9.752;2023-03-11T11:23:25;100241.41;;;8.81;56.75
72560;BME280;62987;52.382;9.752;2023-03-11T11:25:56;100288.44;;;9.18;55.66
72560;BME280;62987;52.382;9.752;2023-03-11T11:28:28;100244.59;;;9.69;53.16
72560;BME280;62987;52.382;9.752;2023-03-11T11:30:58;100265.22;;;11.09;48.63
72560;BME280;62987;52.382;9.752;2023-03-11T11:33:29;100279.94;;;11.16;49.33
72560;BME280;62987;52.382;9.752;2023-03-11T11:36:01;100258.41;;;10.69;47.04
72560;BME280;62987;52.382;9.752;2023-03-11T11:38:31;100282.75;;;11.30;54.65
72560;BME280;62987;52.382;9.752;2023-03-11T11:41:02;100297.03;;;10.02;49.24
72560;BME280;62987;52.382;9.752;2023-03-11T11:43:45;100295.34;;;9.42;51.46
72560;BME280;62987;52.382;9.752;2023-03-11T11:46:18;100258.66;;;9.11;52.05
72560;BME280;62987;52.382;9.752;2023-03-11T11:48:59;100177.69;;;9.03;50.99
72560;BME280;62987;52.382;9.752;2023-03-11T11:51:32;100291.50;;;10.45;50.65
72560;BME280;62987;52.382;9.752;2023-03-11T11:54:07;100288.44;;;10.35;53.26
72560;BME280;62987;52.382;9.752;2023-03-11T11:56:40;100295.84;;;10.64;49.36
72560;BME280;62987;52.382;9.752;2023-03-11T11:59:15;100271.34;;;11.11;56.12
72560;BME280;62987;52.382;9.752;2023-03-11T12:01:52;100283.03;;;12.24;54.97
72560;BME280;62987;52.382;9.752;2023-03-11T12:04:54;100289.72;;;11.33;46.67
72560;BME280;62987;52.382;9.752;2023-03-11T12:07:38;100283.19;;;11.55;45.15
72560;BME280;62987;52.382;9.752;2023-03-11T12:10:19;100272.16;;;10.24;47.04
72560;BME280;62987;52.382;9.752;2023-03-11T12:13:04;100292.28;;;10.82;45.80
72560;BME280;62987;52.382;9.752;2023-03-11T12:15:41;100280.84;;;11.67;47.37
72560;BME280;62987;52.382;9.752;2023-03-11T12:18:17;100258.75;;;12.90;47.45
72560;BME280;62987;52.382;9.752;2023-03-11T12:20:53;100292.28;;;10.82;45.75
72560;BME280;62987;52.382;9.752;2023-03-11T12:23:32;100264.31;;;11.60;50.37
72560;BME280;62987;52.382;9.752;2023-03-11T12:26:13;100249.06;;;11.46;44.89
72560;BME280;62987;52.382;9.752;2023-03-11T12:28:46;100274.69;;;11.32;48.52
72560;BME280;62987;52.382;9.752;2023-03-11T12:31:17;100286.88;;;10.84;46.56
72560;BME280;62987;52.382;9.752;2023-03-11T12:33:47;100266.94;;;10.93;49.21
72560;BME280;62987;52.382;9.752;2023-03-11T12:36:24;100282.09;;;10.37;49.80
72560;BME280;62987;52.382;9.752;2023-03-11T12:38:57;100283.59;;;10.24;46.72
72560;BME280;62987;52.382;9.752;2023-03-11T12:41:29;100256.66;;;8.96;50.20
72560;BME280;62987;52.382;9.752;2023-03-11T12:44:03;100294.97;;;8.47;51.78
72560;BME280;62987;52.382;9.752;2023-03-11T12:49:40;100288.25;;;7.69;56.43
72560;BME280;62987;52.382;9.752;2023-03-11T12:52:19;100299.94;;;7.13;56.89
72560;BME280;62987;52.382;9.752;2023-03-11T12:55:23;100299.88;;;7.15;57.46
72560;BME280;62987;52.382;9.752;2023-03-11T12:57:57;100291.19;;;6.60;60.09
72560;BME280;62987;52.382;9.752;2023-03-11T13:00:39;100291.91;;;7.16;57.19
72560;BME280;62987;52.382;9.752;2023-03-11T13:03:32;100294.81;;;8.50;56.86
72560;BME280;62987;52.382;9.752;2023-03-11T13:06:14;100290.44;;;8.71;54.40
72560;BME280;62987;52.382;9.752;2023-03-11T13:08:48;100298.84;;;8.15;53.71
72560;BME280;62987;52.382;9.752;2023-03-11T13:11:41;100293.50;;;8.82;51.00
72560;BME280;62987;52.382;9.752;2023-03-11T13:14:30;100300.78;;;9.19;54.11
72560;BME280;62987;52.382;9.752;2023-03-11T13:17:27;100311.38;;;7.87;54.51
72560;BME280;62987;52.382;9.752;2023-03-11T13:19:58;100289.03;;;7.22;55.87